createdAt,value
2022-12-11T00:00:06.411Z,66.86
2022-12-11T00:02:33.032Z,67.92
2022-12-11T00:04:59.664Z,67.70
2022-12-11T00:07:26.308Z,67.17
2022-12-11T00:09:52.917Z,67.16
2022-12-11T00:12:19.546Z,66.54
2022-12-11T00:14:46.127Z,66.44
2022-12-11T00:17:12.753Z,66.66
2022-12-11T00:19:39.377Z,66.52
2022-12-11T00:22:06.042Z,66.37
2022-12-11T00:24:32.712Z,66.31
2022-12-11T00:26:59.501Z,66.02
2022-12-11T00:29:26.107Z,65.67
2022-12-11T00:31:52.735Z,66.01
2022-12-11T00:34:19.341Z,65.89
2022-12-11T00:36:45.986Z,65.67
2022-12-11T00:39:12.778Z,65.88
2022-12-11T00:41:39.369Z,65.69
2022-12-11T00:44:06.140Z,66.51
2022-12-11T00:46:32.832Z,66.89
2022-12-11T00:48:59.451Z,67.13
2022-12-11T00:51:26.249Z,66.91
2022-12-11T00:53:52.895Z,67.43
2022-12-11T00:56:22.568Z,67.68
2022-12-11T00:58:49.538Z,67.88
2022-12-11T01:01:22.492Z,67.93
2022-12-11T01:03:49.396Z,68.31
2022-12-11T01:06:18.852Z,69.18
2022-12-11T01:08:46.257Z,68.83
2022-12-11T01:11:15.569Z,68.72
2022-12-11T01:13:43.295Z,69.30
2022-12-11T01:16:14.052Z,69.20
2022-12-11T01:18:41.120Z,69.73
2022-12-11T01:21:13.445Z,69.26
2022-12-11T01:23:40.633Z,69.65
2022-12-11T01:26:15.016Z,70.04
2022-12-11T01:28:42.349Z,70.07
2022-12-11T01:31:13.844Z,70.67
2022-12-11T01:33:41.421Z,70.66
2022-12-11T01:36:19.738Z,70.99
2022-12-11T01:38:48.056Z,70.38
2022-12-11T01:41:15.394Z,70.65
2022-12-11T01:44:03.615Z,71.79
2022-12-11T01:46:32.448Z,71.42
2022-12-11T01:49:00.909Z,72.19
2022-12-11T01:51:31.438Z,72.53
2022-12-11T01:54:03.667Z,72.28
2022-12-11T01:56:32.966Z,71.90
2022-12-11T01:59:07.137Z,72.16
2022-12-11T02:01:39.775Z,72.38
2022-12-11T02:04:08.698Z,72.50
2022-12-11T02:06:44.814Z,72.28
2022-12-11T02:09:14.890Z,72.64
2022-12-11T02:11:53.307Z,72.50
2022-12-11T02:14:34.981Z,72.79
2022-12-11T02:17:10.268Z,73.37
2022-12-11T02:20:10.713Z,73.05
2022-12-11T02:22:37.477Z,73.13
2022-12-11T02:25:19.074Z,72.08
2022-12-11T02:27:56.734Z,72.64
2022-12-11T02:30:24.838Z,71.64
2022-12-11T02:32:55.772Z,72.01
2022-12-11T02:35:28.374Z,71.63
2022-12-11T02:37:59.685Z,71.10
2022-12-11T02:40:30.143Z,70.89
2022-12-11T02:43:00.110Z,71.13
2022-12-11T02:45:29.014Z,70.50
2022-12-11T02:47:58.888Z,70.63
2022-12-11T02:50:27.067Z,71.38
2022-12-11T02:52:56.940Z,71.36
2022-12-11T02:55:27.264Z,71.13
2022-12-11T02:58:03.893Z,71.41
2022-12-11T03:00:30.723Z,71.28
2022-12-11T03:02:58.041Z,71.01
2022-12-11T03:05:24.811Z,70.70
2022-12-11T03:07:51.486Z,71.41
2022-12-11T03:10:19.921Z,71.38
2022-12-11T03:12:53.377Z,71.43
2022-12-11T03:15:24.044Z,71.24
2022-12-11T03:17:59.682Z,71.71
2022-12-11T03:20:38.948Z,72.01
2022-12-11T03:23:28.546Z,71.72
2022-12-11T03:26:10.413Z,72.05
2022-12-11T03:28:45.638Z,71.88
2022-12-11T03:31:37.781Z,71.66
2022-12-11T03:34:13.598Z,72.17
2022-12-11T03:36:40.962Z,71.47
2022-12-11T03:39:12.685Z,70.86
2022-12-11T03:41:41.160Z,70.43
2022-12-11T03:44:09.194Z,70.35
2022-12-11T03:46:39.502Z,70.66
2022-12-11T03:49:09.532Z,70.15
2022-12-11T03:51:36.817Z,70.12
2022-12-11T03:54:03.691Z,70.32
2022-12-11T03:56:34.293Z,70.33
2022-12-11T03:59:00.862Z,70.39
2022-12-11T04:01:27.647Z,70.66
2022-12-11T04:03:54.332Z,70.82
2022-12-11T04:06:20.981Z,70.09
2022-12-11T04:08:47.598Z,70.21
2022-12-11T04:11:32.713Z,70.20
2022-12-11T04:14:25.214Z,69.32
2022-12-11T04:16:51.894Z,69.64
2022-12-11T04:19:37.958Z,69.85
2022-12-11T04:22:23.387Z,70.44
2022-12-11T04:24:50.379Z,69.91
2022-12-11T04:27:38.501Z,69.86
2022-12-11T04:30:09.545Z,69.77
2022-12-11T04:32:36.154Z,69.52
2022-12-11T04:35:02.984Z,68.88
2022-12-11T04:37:30.121Z,69.20
2022-12-11T04:39:56.757Z,69.26
2022-12-11T04:42:23.410Z,69.94
2022-12-11T04:44:50.002Z,68.69
2022-12-11T04:47:16.954Z,69.03
2022-12-11T04:49:43.565Z,69.03
2022-12-11T04:52:10.202Z,69.11
2022-12-11T04:54:36.792Z,69.66
2022-12-11T04:57:03.439Z,69.68
2022-12-11T04:59:31.467Z,69.45
2022-12-11T05:01:58.151Z,69.36
2022-12-11T05:04:24.766Z,70.35
2022-12-11T05:06:51.786Z,70.25
2022-12-11T05:09:18.379Z,70.62
2022-12-11T05:11:44.938Z,69.74
2022-12-11T05:14:11.619Z,69.44
2022-12-11T05:16:38.328Z,69.11
2022-12-11T05:19:04.969Z,70.09
2022-12-11T05:21:35.056Z,69.70
2022-12-11T05:24:02.683Z,69.83
2022-12-11T05:26:29.426Z,69.80
2022-12-11T05:28:56.049Z,68.91
2022-12-11T05:31:25.637Z,69.95
2022-12-11T05:33:53.505Z,69.32
2022-12-11T05:36:26.121Z,68.96
2022-12-11T05:38:53.177Z,68.48
2022-12-11T05:41:24.578Z,68.73
2022-12-11T05:43:52.067Z,68.28
2022-12-11T05:46:26.578Z,68.62
2022-12-11T05:48:56.522Z,68.36
2022-12-11T05:51:23.827Z,67.48
2022-12-11T05:53:51.769Z,68.65
2022-12-11T05:56:26.320Z,68.50
2022-12-11T05:58:54.161Z,68.74
2022-12-11T06:01:25.110Z,68.42
2022-12-11T06:03:52.108Z,69.36
2022-12-11T06:06:18.788Z,68.53
2022-12-11T06:08:45.420Z,69.25
2022-12-11T06:11:18.371Z,68.54
2022-12-11T06:13:48.350Z,69.27
2022-12-11T06:16:15.367Z,69.57
2022-12-11T06:18:44.866Z,70.01
2022-12-11T06:21:24.813Z,69.08
2022-12-11T06:23:54.109Z,68.51
2022-12-11T06:26:21.518Z,68.03
2022-12-11T06:28:48.546Z,68.02
2022-12-11T06:31:15.792Z,68.35
2022-12-11T06:33:43.343Z,67.95
2022-12-11T06:36:17.776Z,67.93
2022-12-11T06:38:45.085Z,68.25
2022-12-11T06:41:12.750Z,68.18
2022-12-11T06:43:40.573Z,67.98
2022-12-11T06:46:10.367Z,67.21
2022-12-11T06:48:37.431Z,67.35
2022-12-11T06:51:12.622Z,67.80
2022-12-11T06:53:39.472Z,67.60
2022-12-11T06:56:12.372Z,67.77
2022-12-11T06:58:40.250Z,68.25
2022-12-11T07:01:24.805Z,67.63
2022-12-11T07:03:55.925Z,67.30
2022-12-11T07:06:23.143Z,67.15
2022-12-11T07:08:50.019Z,67.91
2022-12-11T07:11:17.861Z,67.36
2022-12-11T07:13:44.857Z,66.75
2022-12-11T07:16:13.822Z,67.32
2022-12-11T07:18:43.470Z,67.83
2022-12-11T07:21:13.219Z,67.17
2022-12-11T07:23:40.590Z,67.04
2022-12-11T07:26:10.877Z,67.00
2022-12-11T07:28:37.638Z,66.63
2022-12-11T07:31:14.871Z,66.50
2022-12-11T07:33:43.004Z,66.96
2022-12-11T07:36:11.728Z,66.83
2022-12-11T07:38:38.830Z,67.18
2022-12-11T07:41:08.343Z,67.08
2022-12-11T07:43:36.078Z,67.26
2022-12-11T07:46:08.549Z,66.74
2022-12-11T07:48:36.694Z,66.94
2022-12-11T07:51:15.140Z,67.49
2022-12-11T07:53:43.031Z,66.65
2022-12-11T07:56:09.649Z,66.18
2022-12-11T07:58:36.976Z,67.07
2022-12-11T08:01:03.610Z,67.38
2022-12-11T08:03:30.265Z,67.03
2022-12-11T08:05:56.910Z,66.17
2022-12-11T08:08:23.566Z,65.90
2022-12-11T08:10:50.182Z,65.95
2022-12-11T08:13:16.753Z,66.57
2022-12-11T08:15:43.432Z,66.81
2022-12-11T08:18:10.385Z,66.70
2022-12-11T08:20:39.354Z,67.84
2022-12-11T08:23:06.047Z,66.96
2022-12-11T08:25:32.927Z,66.93
2022-12-11T08:27:59.503Z,67.24
2022-12-11T08:30:26.136Z,67.18
2022-12-11T08:32:52.808Z,67.24
2022-12-11T08:35:19.423Z,67.46
2022-12-11T08:37:46.017Z,67.44
2022-12-11T08:40:12.700Z,67.50
2022-12-11T08:42:39.317Z,67.78
2022-12-11T08:45:06.682Z,67.22
2022-12-11T08:47:33.261Z,66.68
2022-12-11T08:49:59.853Z,66.67
2022-12-11T08:52:26.459Z,66.69
2022-12-11T08:54:53.080Z,66.35
2022-12-11T08:57:19.638Z,65.97
2022-12-11T08:59:46.261Z,65.73
2022-12-11T09:02:13.502Z,65.97
2022-12-11T09:04:40.340Z,65.57
2022-12-11T09:07:06.920Z,66.50
2022-12-11T09:09:33.544Z,65.86
2022-12-11T09:12:01.532Z,65.53
2022-12-11T09:14:28.164Z,65.54
2022-12-11T09:16:54.729Z,65.05
2022-12-11T09:19:21.333Z,64.78
2022-12-11T09:21:48.317Z,65.31
2022-12-11T09:24:15.201Z,65.19
2022-12-11T09:26:42.018Z,65.09
2022-12-11T09:29:09.202Z,64.94
2022-12-11T09:31:36.909Z,64.13
2022-12-11T09:34:11.461Z,63.94
2022-12-11T09:36:42.565Z,63.52
2022-12-11T09:39:11.601Z,63.31
2022-12-11T09:41:49.740Z,63.01
2022-12-11T09:44:31.479Z,62.98
2022-12-11T09:46:59.093Z,62.55
2022-12-11T09:49:37.702Z,62.94
2022-12-11T09:52:23.388Z,62.63
2022-12-11T09:54:56.517Z,62.23
2022-12-11T09:57:25.984Z,62.92
2022-12-11T10:00:14.129Z,62.41
2022-12-11T10:03:01.386Z,63.71
2022-12-11T10:05:45.325Z,63.79
2022-12-11T10:08:20.931Z,63.26
2022-12-11T10:11:16.312Z,63.19
2022-12-11T10:14:00.192Z,63.27
2022-12-11T10:16:46.157Z,62.08
2022-12-11T10:19:27.656Z,63.10
2022-12-11T10:21:55.733Z,63.21
2022-12-11T10:27:31.384Z,62.90
2022-12-11T10:30:08.358Z,62.90
2022-12-11T10:33:02.450Z,62.57
2022-12-11T10:35:32.105Z,62.65
2022-12-11T10:38:27.573Z,61.32
2022-12-11T10:41:00.868Z,62.40
2022-12-11T10:43:39.731Z,61.82
2022-12-11T10:46:14.125Z,60.95
2022-12-11T10:48:55.452Z,61.68
2022-12-11T10:51:34.277Z,61.46
2022-12-11T10:54:29.330Z,61.67
2022-12-11T10:56:56.746Z,60.60
2022-12-11T10:59:30.530Z,60.44
2022-12-11T11:01:58.101Z,60.18
2022-12-11T11:04:31.566Z,59.21
2022-12-11T11:07:11.123Z,59.32
2022-12-11T11:09:37.792Z,59.01
2022-12-11T11:12:08.081Z,59.31
2022-12-11T11:14:34.900Z,58.88
2022-12-11T11:17:01.624Z,58.01
2022-12-11T11:19:33.834Z,58.23
2022-12-11T11:22:19.698Z,58.19
2022-12-11T11:24:54.217Z,57.79
2022-12-11T11:27:41.344Z,57.96
2022-12-11T11:30:37.860Z,57.75
2022-12-11T11:33:12.547Z,58.10
2022-12-11T11:35:45.535Z,58.48
2022-12-11T11:38:21.996Z,58.17
2022-12-11T11:41:04.848Z,57.92
2022-12-11T11:43:38.714Z,57.90
2022-12-11T11:46:23.318Z,58.14
2022-12-11T11:49:07.902Z,58.24
2022-12-11T11:51:43.084Z,58.21
2022-12-11T11:54:17.095Z,58.14
2022-12-11T11:56:44.297Z,56.80
2022-12-11T11:59:22.723Z,56.76
2022-12-11T12:01:51.211Z,57.19
2022-12-11T12:04:17.871Z,57.26
2022-12-11T12:07:06.515Z,57.33
2022-12-11T12:10:00.674Z,57.89
2022-12-11T12:12:51.469Z,57.58
2022-12-11T12:15:28.881Z,57.80
2022-12-11T12:17:59.929Z,57.33
2022-12-11T12:20:38.865Z,57.39
2022-12-11T12:23:17.383Z,57.47
2022-12-11T12:26:00.381Z,57.04
2022-12-11T12:28:29.674Z,58.15
2022-12-11T12:31:17.423Z,58.62
2022-12-11T12:34:12.046Z,58.77
2022-12-11T12:36:57.412Z,59.09
2022-12-11T12:39:35.738Z,59.04
2022-12-11T12:42:16.125Z,58.18
2022-12-11T12:45:10.789Z,58.20
2022-12-11T12:47:38.983Z,58.40
2022-12-11T12:50:12.515Z,58.23
2022-12-11T12:52:40.794Z,58.07
2022-12-11T12:55:18.058Z,58.18
2022-12-11T12:57:54.617Z,57.48
2022-12-11T13:00:32.498Z,58.16
2022-12-11T13:03:03.359Z,57.79
2022-12-11T13:05:33.376Z,57.58
2022-12-11T13:08:03.411Z,57.21
2022-12-11T13:10:33.773Z,56.99
2022-12-11T13:13:02.436Z,57.06
2022-12-11T13:15:34.159Z,56.99
2022-12-11T13:18:03.948Z,57.80
2022-12-11T13:20:34.492Z,58.14
2022-12-11T13:23:07.140Z,58.14
2022-12-11T13:25:51.069Z,58.39
2022-12-11T13:28:28.842Z,57.81
2022-12-11T13:31:15.401Z,58.23
2022-12-11T13:33:47.058Z,58.18
2022-12-11T13:36:24.520Z,58.96
2022-12-11T13:39:04.841Z,59.88
2022-12-11T13:41:35.387Z,60.57
2022-12-11T13:44:03.100Z,60.57
2022-12-11T13:46:35.621Z,59.88
2022-12-11T13:49:06.922Z,59.83
2022-12-11T13:51:38.069Z,59.61
2022-12-11T13:54:17.966Z,59.79
2022-12-11T13:57:04.024Z,59.54
2022-12-11T13:59:32.235Z,58.79
2022-12-11T14:02:04.059Z,58.56
2022-12-11T14:04:34.316Z,58.05
2022-12-11T14:07:01.947Z,58.37
2022-12-11T14:09:29.543Z,58.28
2022-12-11T14:11:57.406Z,58.45
2022-12-11T14:14:33.340Z,58.92
2022-12-11T14:17:00.324Z,59.34
2022-12-11T14:19:27.784Z,59.21
2022-12-11T14:22:03.205Z,59.38
2022-12-11T14:24:31.230Z,59.63
2022-12-11T14:26:58.632Z,59.29
2022-12-11T14:29:33.003Z,59.03
2022-12-11T14:32:04.828Z,58.84
2022-12-11T14:34:36.969Z,58.84
2022-12-11T14:37:06.423Z,58.41
2022-12-11T14:39:52.757Z,58.22
2022-12-11T14:42:27.293Z,59.28
2022-12-11T14:45:03.145Z,59.29
2022-12-11T14:47:37.617Z,58.84
2022-12-11T14:50:17.389Z,59.63
2022-12-11T14:52:48.187Z,59.30
2022-12-11T14:55:21.653Z,59.31
2022-12-11T14:57:51.385Z,59.54
2022-12-11T15:00:22.299Z,58.97
2022-12-11T15:03:02.088Z,58.52
2022-12-11T15:05:30.026Z,58.02
2022-12-11T15:07:58.275Z,57.19
2022-12-11T15:10:31.377Z,57.47
2022-12-11T15:12:58.337Z,57.63
2022-12-11T15:15:33.876Z,57.38
2022-12-11T15:18:05.191Z,57.48
2022-12-11T15:20:31.871Z,58.26
2022-12-11T15:23:01.794Z,59.07
2022-12-11T15:25:29.794Z,59.10
2022-12-11T15:27:59.835Z,59.29
2022-12-11T15:30:33.190Z,59.22
2022-12-11T15:33:19.738Z,59.68
2022-12-11T15:36:04.444Z,59.53
2022-12-11T15:38:40.783Z,62.61
2022-12-11T15:41:14.555Z,62.26
2022-12-11T15:43:41.477Z,61.90
2022-12-11T15:46:08.190Z,62.88
2022-12-11T15:48:34.833Z,63.46
2022-12-11T15:51:01.429Z,62.63
2022-12-11T15:53:28.037Z,63.17
2022-12-11T15:55:54.933Z,63.52
2022-12-11T15:58:24.281Z,64.59
2022-12-11T16:00:51.164Z,64.20
2022-12-11T16:03:20.220Z,64.57
2022-12-11T16:05:47.222Z,64.63
2022-12-11T16:08:16.231Z,64.00
2022-12-11T16:10:43.752Z,63.29
2022-12-11T16:13:11.453Z,63.56
2022-12-11T16:15:41.004Z,63.06
2022-12-11T16:18:11.080Z,63.22
2022-12-11T16:20:39.977Z,63.00
2022-12-11T16:23:08.302Z,63.21
2022-12-11T16:25:40.954Z,63.22
2022-12-11T16:28:08.724Z,62.89
2022-12-11T16:30:36.783Z,62.06
2022-12-11T16:33:10.224Z,61.99
2022-12-11T16:35:38.897Z,62.10
2022-12-11T16:38:05.532Z,61.34
2022-12-11T16:40:32.109Z,61.08
2022-12-11T16:42:58.721Z,61.06
2022-12-11T16:45:27.011Z,62.33
2022-12-11T16:47:53.829Z,62.12
2022-12-11T16:50:20.560Z,61.37
2022-12-11T16:52:47.409Z,61.50
2022-12-11T16:55:15.089Z,62.80
2022-12-11T16:57:42.047Z,61.56
2022-12-11T17:00:12.219Z,61.67
2022-12-11T17:02:38.939Z,61.23
2022-12-11T17:05:05.917Z,61.01
2022-12-11T17:07:33.227Z,61.06
2022-12-11T17:10:01.836Z,60.84
2022-12-11T17:12:28.784Z,60.60
2022-12-11T17:14:56.398Z,60.52
2022-12-11T17:17:22.994Z,60.32
2022-12-11T17:19:49.668Z,60.26
2022-12-11T17:22:16.419Z,60.02
2022-12-11T17:24:43.047Z,61.76
2022-12-11T17:27:09.826Z,63.45
2022-12-11T17:29:36.432Z,63.26
2022-12-11T17:32:03.364Z,62.69
2022-12-11T17:34:36.122Z,62.38
2022-12-11T17:37:05.323Z,61.46
2022-12-11T17:39:31.994Z,60.97
2022-12-11T17:41:58.556Z,60.85
2022-12-11T17:44:26.759Z,60.70
2022-12-11T17:46:53.742Z,60.89
2022-12-11T17:49:20.460Z,60.87
2022-12-11T17:51:48.045Z,60.46
2022-12-11T17:54:15.036Z,61.30
2022-12-11T17:56:41.798Z,61.80
2022-12-11T17:59:08.466Z,61.24
2022-12-11T18:01:35.236Z,60.74
2022-12-11T18:04:02.423Z,60.55
2022-12-11T18:06:29.959Z,61.23
2022-12-11T18:08:57.605Z,60.64
2022-12-11T18:11:24.409Z,60.87
2022-12-11T18:13:52.822Z,61.20
2022-12-11T18:16:29.467Z,61.53
2022-12-11T18:18:56.617Z,62.30
2022-12-11T18:21:29.049Z,61.84
2022-12-11T18:23:56.475Z,62.88
2022-12-11T18:26:23.466Z,63.86
2022-12-11T18:28:51.059Z,65.43
2022-12-11T18:31:18.759Z,65.95
2022-12-11T18:33:46.612Z,64.93
2022-12-11T18:36:15.364Z,64.77
2022-12-11T18:38:42.314Z,65.37
2022-12-11T18:41:10.797Z,66.16
2022-12-11T18:43:37.845Z,65.30
2022-12-11T18:46:14.259Z,65.01
2022-12-11T18:48:42.377Z,65.24
2022-12-11T18:51:12.493Z,65.53
2022-12-11T18:53:39.945Z,65.40
2022-12-11T18:56:13.254Z,65.51
2022-12-11T18:58:40.307Z,65.11
2022-12-11T19:01:33.146Z,64.94
2022-12-11T19:04:04.530Z,64.89
2022-12-11T19:06:35.628Z,64.34
2022-12-11T19:09:03.826Z,63.66
2022-12-11T19:11:31.797Z,63.92
2022-12-11T19:13:59.038Z,64.36
2022-12-11T19:16:33.598Z,64.41
2022-12-11T19:19:07.068Z,63.82
2022-12-11T19:21:35.477Z,63.47
2022-12-11T19:24:02.181Z,62.57
2022-12-11T19:26:28.928Z,62.49
2022-12-11T19:28:59.983Z,62.19
2022-12-11T19:31:29.029Z,62.01
2022-12-11T19:33:56.723Z,61.78
2022-12-11T19:36:26.015Z,61.97
2022-12-11T19:38:59.300Z,61.64
2022-12-11T19:41:28.880Z,62.02
2022-12-11T19:43:57.473Z,61.58
2022-12-11T19:46:25.005Z,61.63
2022-12-11T19:48:54.189Z,61.38
2022-12-11T19:51:23.913Z,62.24
2022-12-11T19:53:51.350Z,62.68
2022-12-11T19:56:18.819Z,62.82
2022-12-11T19:58:45.664Z,63.51
2022-12-11T20:01:25.845Z,64.47
2022-12-11T20:03:53.572Z,64.08
2022-12-11T20:06:20.260Z,63.68
2022-12-11T20:08:47.333Z,63.66
2022-12-11T20:11:18.354Z,62.75
2022-12-11T20:13:47.014Z,62.04
2022-12-11T20:16:14.373Z,61.71
2022-12-11T20:18:41.737Z,61.39
2022-12-11T20:21:14.375Z,61.71
2022-12-11T20:23:41.424Z,61.34
2022-12-11T20:26:19.865Z,61.16
2022-12-11T20:28:50.197Z,61.36
2022-12-11T20:31:20.818Z,61.12
2022-12-11T20:33:49.255Z,61.32
2022-12-11T20:36:18.318Z,60.97
2022-12-11T20:38:45.265Z,60.79
2022-12-11T20:41:15.010Z,61.43
2022-12-11T20:43:42.293Z,61.35
2022-12-11T20:46:11.834Z,60.80
2022-12-11T20:48:39.901Z,60.57
2022-12-11T20:51:08.247Z,60.52
2022-12-11T20:53:36.082Z,60.60
2022-12-11T20:56:08.355Z,60.89
2022-12-11T20:58:34.910Z,61.49
2022-12-11T21:01:01.906Z,61.19
2022-12-11T21:03:28.580Z,61.30
2022-12-11T21:05:55.282Z,61.29
2022-12-11T21:08:21.938Z,61.56
2022-12-11T21:10:48.666Z,61.32
2022-12-11T21:13:16.742Z,61.08
2022-12-11T21:15:43.513Z,61.08
2022-12-11T21:18:10.194Z,60.85
2022-12-11T21:20:36.747Z,61.82
2022-12-11T21:23:03.936Z,61.54
2022-12-11T21:25:30.573Z,61.34
2022-12-11T21:27:57.149Z,61.40
2022-12-11T21:30:23.761Z,61.62
2022-12-11T21:32:50.351Z,63.81
2022-12-11T21:35:17.062Z,64.90
2022-12-11T21:37:43.733Z,64.01
2022-12-11T21:40:10.721Z,63.04
2022-12-11T21:42:37.297Z,63.40
2022-12-11T21:47:50.973Z,63.46
2022-12-11T21:50:18.133Z,63.17
2022-12-11T21:52:44.743Z,62.70
2022-12-11T21:55:12.785Z,62.40
2022-12-11T21:57:39.656Z,62.67
2022-12-11T22:00:06.785Z,62.55
2022-12-11T22:02:37.553Z,62.99
2022-12-11T22:05:07.692Z,63.06
2022-12-11T22:07:34.287Z,63.30
2022-12-11T22:10:02.204Z,65.51
2022-12-11T22:12:29.577Z,67.13
2022-12-11T22:14:56.437Z,66.79
2022-12-11T22:17:23.217Z,67.05
2022-12-11T22:19:52.035Z,66.64
2022-12-11T22:22:19.322Z,66.65
2022-12-11T22:24:46.095Z,68.23
2022-12-11T22:27:12.693Z,69.51
2022-12-11T22:29:39.314Z,69.14
2022-12-11T22:32:05.913Z,68.85
2022-12-11T22:34:32.500Z,69.74
2022-12-11T22:36:59.064Z,71.14
2022-12-11T22:39:25.684Z,71.24
2022-12-11T22:41:52.326Z,70.86
2022-12-11T22:44:21.390Z,71.93
2022-12-11T22:46:50.436Z,72.60
2022-12-11T22:49:18.772Z,73.15
2022-12-11T22:51:45.470Z,74.31
2022-12-11T22:54:12.254Z,73.94
2022-12-11T22:56:38.988Z,73.44
2022-12-11T22:59:07.524Z,72.19
2022-12-11T23:01:34.463Z,69.55
2022-12-11T23:04:01.066Z,67.86
2022-12-11T23:06:27.691Z,67.14
2022-12-11T23:08:58.730Z,66.60
2022-12-11T23:11:29.418Z,67.48
2022-12-11T23:13:56.703Z,66.68
2022-12-11T23:16:25.845Z,65.63
2022-12-11T23:18:53.697Z,65.57
2022-12-11T23:21:21.782Z,65.62
2022-12-11T23:23:48.850Z,65.29
2022-12-11T23:26:15.990Z,65.09
2022-12-11T23:28:42.565Z,66.25
2022-12-11T23:31:09.322Z,66.75
2022-12-11T23:33:36.792Z,67.75
2022-12-11T23:36:04.498Z,68.62
2022-12-11T23:38:31.129Z,68.74
2022-12-11T23:41:00.246Z,67.79
2022-12-11T23:43:26.949Z,68.30
2022-12-11T23:45:54.136Z,67.73
2022-12-11T23:48:21.225Z,68.51
2022-12-11T23:50:48.209Z,68.78
2022-12-11T23:53:15.279Z,68.58
2022-12-11T23:55:44.838Z,69.60
2022-12-11T23:58:11.987Z,69.26
